createdAt,value
2022-09-02T00:01:28.321Z,12.40
2022-09-02T00:04:02.100Z,12.40
2022-09-02T00:06:31.316Z,12.40
2022-09-02T00:08:59.079Z,12.40
2022-09-02T00:11:29.378Z,12.40
2022-09-02T00:13:57.602Z,12.40
2022-09-02T00:16:25.337Z,12.40
2022-09-02T00:18:53.323Z,12.40
2022-09-02T00:21:21.449Z,12.40
2022-09-02T00:23:49.194Z,12.50
2022-09-02T00:26:16.344Z,12.50
2022-09-02T00:28:44.290Z,12.50
2022-09-02T00:31:17.015Z,12.50
2022-09-02T00:33:44.397Z,12.50
2022-09-02T00:36:11.725Z,12.50
2022-09-02T00:38:39.856Z,12.50
2022-09-02T00:41:10.915Z,12.50
2022-09-02T00:43:41.279Z,12.50
2022-09-02T00:46:09.077Z,12.50
2022-09-02T00:48:40.208Z,12.50
2022-09-02T00:51:09.064Z,12.60
2022-09-02T00:53:39.403Z,12.50
2022-09-02T00:56:13.052Z,12.60
2022-09-02T00:58:43.043Z,12.50
2022-09-02T01:01:11.824Z,12.50
2022-09-02T01:03:41.268Z,12.60
2022-09-02T01:06:15.421Z,12.50
2022-09-02T01:08:54.304Z,12.50
2022-09-02T01:11:22.180Z,12.50
2022-09-02T01:13:49.090Z,12.50
2022-09-02T01:16:16.020Z,12.50
2022-09-02T01:18:47.697Z,12.60
2022-09-02T01:21:14.863Z,12.60
2022-09-02T01:23:41.892Z,12.60
2022-09-02T01:26:10.903Z,12.60
2022-09-02T01:28:37.847Z,12.60
2022-09-02T01:31:05.125Z,12.50
2022-09-02T01:33:32.082Z,12.50
2022-09-02T01:35:59.793Z,12.50
2022-09-02T01:38:27.392Z,12.60
2022-09-02T01:40:54.487Z,12.50
2022-09-02T01:43:27.455Z,12.50
2022-09-02T01:45:56.798Z,12.50
2022-09-02T01:48:26.756Z,12.50
2022-09-02T01:51:01.027Z,12.50
2022-09-02T01:53:29.638Z,12.50
2022-09-02T01:55:57.908Z,12.50
2022-09-02T01:58:25.022Z,12.60
2022-09-02T02:00:52.196Z,12.50
2022-09-02T02:03:20.494Z,12.50
2022-09-02T02:05:48.233Z,12.50
2022-09-02T02:08:17.563Z,12.50
2022-09-02T02:10:47.143Z,12.50
2022-09-02T02:13:14.560Z,12.50
2022-09-02T02:15:44.315Z,12.50
2022-09-02T02:18:11.743Z,12.50
2022-09-02T02:20:38.893Z,12.50
2022-09-02T02:23:06.372Z,12.40
2022-09-02T02:25:33.385Z,12.40
2022-09-02T02:28:00.460Z,12.40
2022-09-02T02:30:30.199Z,12.40
2022-09-02T02:32:58.010Z,12.30
2022-09-02T02:35:25.817Z,12.40
2022-09-02T02:37:54.072Z,12.30
2022-09-02T02:40:23.660Z,12.30
2022-09-02T02:42:54.986Z,12.40
2022-09-02T02:45:24.339Z,12.40
2022-09-02T02:47:52.674Z,12.30
2022-09-02T02:50:22.881Z,12.40
2022-09-02T02:52:50.822Z,12.30
2022-09-02T02:55:19.379Z,12.30
2022-09-02T02:57:46.386Z,12.30
2022-09-02T03:00:25.075Z,12.30
2022-09-02T03:02:59.398Z,12.30
2022-09-02T03:05:27.362Z,12.30
2022-09-02T03:07:54.722Z,12.30
2022-09-02T03:10:23.469Z,12.30
2022-09-02T03:12:50.928Z,12.30
2022-09-02T03:15:20.860Z,12.30
2022-09-02T03:17:51.320Z,12.30
2022-09-02T03:20:19.173Z,12.30
2022-09-02T03:22:55.254Z,12.40
2022-09-02T03:25:23.776Z,12.30
2022-09-02T03:27:54.828Z,12.30
2022-09-02T03:30:25.446Z,12.30
2022-09-02T03:32:54.488Z,12.30
2022-09-02T03:35:22.651Z,12.40
2022-09-02T03:37:51.720Z,12.40
2022-09-02T03:40:23.411Z,12.30
2022-09-02T03:42:56.740Z,12.40
2022-09-02T03:45:27.098Z,12.40
2022-09-02T03:47:54.360Z,12.40
2022-09-02T03:50:29.908Z,12.40
2022-09-02T03:52:59.062Z,12.40
2022-09-02T03:55:26.961Z,12.40
2022-09-02T03:57:54.754Z,12.30
2022-09-02T04:00:25.818Z,12.30
2022-09-02T04:02:55.352Z,12.20
2022-09-02T04:05:24.196Z,12.20
2022-09-02T04:07:54.142Z,12.20
2022-09-02T04:10:22.018Z,12.20
2022-09-02T04:12:51.195Z,12.10
2022-09-02T04:15:19.422Z,12.10
2022-09-02T04:17:47.387Z,12.10
2022-09-02T04:20:18.070Z,12.00
2022-09-02T04:22:45.322Z,12.10
2022-09-02T04:25:13.237Z,12.20
2022-09-02T04:27:40.453Z,12.20
2022-09-02T04:30:09.379Z,12.30
2022-09-02T04:32:40.952Z,12.40
2022-09-02T04:35:09.413Z,12.40
2022-09-02T04:37:37.298Z,12.40
2022-09-02T04:40:05.200Z,12.40
2022-09-02T04:42:32.327Z,12.40
2022-09-02T04:44:59.661Z,12.40
2022-09-02T04:47:27.868Z,12.50
2022-09-02T04:49:55.756Z,12.40
2022-09-02T04:52:23.903Z,12.40
2022-09-02T04:54:50.985Z,12.50
2022-09-02T04:57:18.188Z,12.50
2022-09-02T04:59:45.387Z,12.50
2022-09-02T05:02:12.702Z,12.50
2022-09-02T05:04:40.592Z,12.50
2022-09-02T05:07:16.055Z,12.40
2022-09-02T05:09:45.271Z,12.40
2022-09-02T05:12:13.255Z,12.30
2022-09-02T05:14:48.889Z,12.30
2022-09-02T05:17:17.721Z,12.20
2022-09-02T05:19:45.570Z,12.20
2022-09-02T05:22:15.430Z,12.10
2022-09-02T05:24:43.281Z,12.10
2022-09-02T05:27:16.150Z,12.10
2022-09-02T05:29:45.623Z,12.20
2022-09-02T05:32:14.350Z,12.30
2022-09-02T05:34:43.015Z,12.40
2022-09-02T05:37:10.903Z,12.60
2022-09-02T05:39:38.746Z,12.70
2022-09-02T05:42:07.792Z,12.80
2022-09-02T05:44:36.764Z,12.90
2022-09-02T05:47:05.266Z,13.00
2022-09-02T05:49:32.716Z,13.00
2022-09-02T05:52:05.377Z,13.00
2022-09-02T05:54:40.662Z,13.10
2022-09-02T05:57:13.870Z,13.10
2022-09-02T06:00:01.032Z,13.00
2022-09-02T06:02:43.980Z,13.00
2022-09-02T06:05:57.372Z,13.00
2022-09-02T06:08:26.014Z,13.00
2022-09-02T06:10:53.180Z,13.00
2022-09-02T06:13:22.997Z,13.00
2022-09-02T06:15:53.021Z,13.00
2022-09-02T06:18:24.384Z,13.10
2022-09-02T06:20:54.623Z,13.10
2022-09-02T06:23:22.122Z,13.10
2022-09-02T06:25:50.184Z,13.10
2022-09-02T06:28:18.321Z,13.10
2022-09-02T06:30:48.647Z,13.10
2022-09-02T06:33:17.568Z,13.10
2022-09-02T06:35:46.353Z,13.10
2022-09-02T06:38:16.210Z,13.10
2022-09-02T06:40:52.484Z,13.10
2022-09-02T06:43:26.168Z,13.20
2022-09-02T06:46:06.495Z,13.10
2022-09-02T06:48:35.478Z,13.10
2022-09-02T06:51:02.528Z,13.10
2022-09-02T06:53:30.580Z,13.10
2022-09-02T06:55:58.790Z,13.20
2022-09-02T06:58:25.867Z,13.20
2022-09-02T07:00:53.684Z,13.20
2022-09-02T07:03:39.113Z,13.20
2022-09-02T07:06:09.908Z,13.30
2022-09-02T07:08:43.377Z,13.20
2022-09-02T07:11:22.740Z,13.20
2022-09-02T07:13:51.607Z,13.20
2022-09-02T07:16:26.824Z,13.20
2022-09-02T07:18:56.368Z,13.30
2022-09-02T07:21:24.259Z,13.50
2022-09-02T07:23:51.364Z,13.60
2022-09-02T07:26:19.378Z,13.60
2022-09-02T07:28:47.867Z,13.70
2022-09-02T07:31:16.341Z,13.80
2022-09-02T07:33:45.023Z,13.80
2022-09-02T07:36:17.134Z,13.90
2022-09-02T07:38:44.784Z,14.10
2022-09-02T07:41:12.659Z,14.10
2022-09-02T07:43:41.261Z,14.10
2022-09-02T07:46:09.416Z,14.20
2022-09-02T07:48:36.910Z,14.20
2022-09-02T07:51:05.321Z,14.30
2022-09-02T07:53:33.032Z,14.40
2022-09-02T07:56:00.858Z,14.50
2022-09-02T07:58:29.047Z,14.50
2022-09-02T08:01:01.168Z,14.50
2022-09-02T08:03:28.515Z,14.40
2022-09-02T08:05:57.353Z,14.50
2022-09-02T08:08:27.540Z,14.40
2022-09-02T08:10:55.206Z,14.40
2022-09-02T08:13:26.753Z,14.40
2022-09-02T08:15:54.867Z,14.40
2022-09-02T08:18:22.869Z,14.40
2022-09-02T08:20:50.248Z,14.50
2022-09-02T08:23:35.965Z,14.60
2022-09-02T08:26:04.313Z,14.60
2022-09-02T08:28:32.208Z,14.40
2022-09-02T08:30:59.453Z,14.50
2022-09-02T08:33:26.604Z,14.50
2022-09-02T08:35:53.500Z,14.40
2022-09-02T08:38:22.398Z,14.40
2022-09-02T08:40:50.951Z,14.40
2022-09-02T08:43:29.358Z,14.40
2022-09-02T08:46:02.981Z,14.40
2022-09-02T08:48:36.649Z,14.40
2022-09-02T08:51:33.744Z,14.40
2022-09-02T08:54:16.025Z,14.40
2022-09-02T08:56:42.980Z,14.30
2022-09-02T08:59:10.452Z,14.30
2022-09-02T09:01:52.858Z,14.30
2022-09-02T09:04:44.381Z,14.20
2022-09-02T09:07:37.370Z,14.20
2022-09-02T09:10:04.285Z,14.20
2022-09-02T09:12:40.099Z,14.20
2022-09-02T09:15:16.514Z,14.30
2022-09-02T09:17:53.113Z,14.40
2022-09-02T09:20:26.541Z,14.40
2022-09-02T09:22:57.559Z,14.50
2022-09-02T09:25:29.708Z,14.60
2022-09-02T09:28:00.899Z,14.60
2022-09-02T09:30:29.303Z,14.50
2022-09-02T09:33:00.005Z,14.60
2022-09-02T09:35:29.073Z,14.50
2022-09-02T09:37:56.588Z,14.60
2022-09-02T09:40:27.528Z,14.70
2022-09-02T09:43:05.882Z,14.60
2022-09-02T09:45:48.178Z,14.60
2022-09-02T09:48:18.549Z,14.70
2022-09-02T09:50:57.576Z,14.60
2022-09-02T09:53:27.379Z,14.60
2022-09-02T09:56:05.804Z,14.60
2022-09-02T09:58:46.183Z,14.50
2022-09-02T10:01:15.296Z,14.60
2022-09-02T10:03:53.191Z,14.70
2022-09-02T10:06:35.869Z,14.80
2022-09-02T10:09:06.193Z,14.90
2022-09-02T10:11:37.799Z,14.90
2022-09-02T10:14:08.432Z,14.90
2022-09-02T10:16:38.337Z,15.00
2022-09-02T10:19:23.494Z,15.20
2022-09-02T10:22:58.763Z,15.20
2022-09-02T10:25:39.194Z,15.20
2022-09-02T10:28:27.001Z,15.10
2022-09-02T10:31:06.119Z,15.10
2022-09-02T10:33:53.092Z,15.10
2022-09-02T10:36:41.598Z,15.20
2022-09-02T10:39:28.667Z,15.30
2022-09-02T10:42:04.279Z,15.10
2022-09-02T10:44:38.300Z,15.00
2022-09-02T10:47:30.221Z,14.90
2022-09-02T10:50:22.327Z,14.80
2022-09-02T10:53:07.383Z,14.80
2022-09-02T10:55:43.046Z,14.80
2022-09-02T10:58:37.052Z,15.00
2022-09-02T11:01:07.387Z,15.20
2022-09-02T11:03:38.706Z,15.20
2022-09-02T11:06:26.227Z,15.00
2022-09-02T11:09:30.034Z,14.90
2022-09-02T11:12:22.793Z,15.00
2022-09-02T11:15:20.198Z,14.90
2022-09-02T11:17:55.929Z,14.90
2022-09-02T11:20:52.884Z,14.90
2022-09-02T11:23:32.614Z,14.90
2022-09-02T11:26:11.257Z,15.00
2022-09-02T11:29:01.259Z,15.00
2022-09-02T11:31:35.732Z,15.00
2022-09-02T11:34:35.824Z,14.90
2022-09-02T11:37:05.721Z,15.10
2022-09-02T11:40:06.637Z,15.10
2022-09-02T11:42:55.446Z,15.30
2022-09-02T11:46:07.498Z,15.50
2022-09-02T11:48:53.857Z,15.70
2022-09-02T11:51:32.704Z,15.80
2022-09-02T11:54:01.789Z,15.70
2022-09-02T11:56:37.963Z,15.70
2022-09-02T11:59:06.882Z,15.50
2022-09-02T12:01:48.030Z,15.30
2022-09-02T12:07:09.875Z,15.10
2022-09-02T12:12:36.364Z,15.00
2022-09-02T12:15:18.047Z,15.10
2022-09-02T12:17:49.954Z,15.20
2022-09-02T12:20:46.969Z,15.40
2022-09-02T12:24:06.989Z,15.40
2022-09-02T12:26:36.684Z,15.50
2022-09-02T12:29:29.487Z,15.40
2022-09-02T12:31:57.325Z,15.50
2022-09-02T12:34:24.124Z,15.50
2022-09-02T12:37:03.859Z,15.60
2022-09-02T12:39:35.502Z,15.70
2022-09-02T12:42:07.069Z,15.50
2022-09-02T12:44:51.332Z,15.50
2022-09-02T12:47:25.625Z,15.20
2022-09-02T12:50:03.458Z,15.30
2022-09-02T12:52:35.675Z,15.40
2022-09-02T12:55:15.488Z,15.50
2022-09-02T12:57:45.166Z,15.50
2022-09-02T13:00:25.086Z,15.50
2022-09-02T13:03:23.599Z,15.50
2022-09-02T13:06:09.097Z,15.60
2022-09-02T13:08:44.658Z,15.70
2022-09-02T13:11:20.346Z,15.50
2022-09-02T13:14:05.180Z,15.50
2022-09-02T13:17:08.935Z,15.60
2022-09-02T13:19:53.147Z,15.50
2022-09-02T13:22:55.256Z,15.60
2022-09-02T13:25:47.641Z,15.30
2022-09-02T13:28:17.465Z,15.30
2022-09-02T13:31:22.439Z,15.40
2022-09-02T13:33:57.965Z,15.40
2022-09-02T13:36:46.074Z,15.30
2022-09-02T13:39:24.020Z,15.30
2022-09-02T13:41:50.990Z,15.30
2022-09-02T13:44:29.444Z,15.40
2022-09-02T13:47:15.928Z,15.40
2022-09-02T13:49:46.144Z,15.30
2022-09-02T13:52:17.389Z,15.50
2022-09-02T13:54:52.770Z,15.60
2022-09-02T13:57:25.919Z,15.80
2022-09-02T13:59:56.591Z,15.80
2022-09-02T14:02:32.766Z,15.90
2022-09-02T14:05:05.172Z,15.80
2022-09-02T14:07:47.865Z,16.00
2022-09-02T14:10:20.692Z,15.90
2022-09-02T14:12:48.636Z,16.00
2022-09-02T14:15:17.551Z,16.10
2022-09-02T14:17:44.466Z,16.10
2022-09-02T14:20:19.561Z,16.10
2022-09-02T14:22:54.361Z,16.10
2022-09-02T14:25:26.688Z,16.30
2022-09-02T14:28:00.585Z,16.10
2022-09-02T14:30:36.246Z,16.30
2022-09-02T14:33:41.372Z,16.50
2022-09-02T14:36:13.333Z,16.60
2022-09-02T14:38:46.326Z,16.40
2022-09-02T14:41:24.310Z,16.50
2022-09-02T14:43:55.452Z,16.70
2022-09-02T14:46:25.346Z,16.60
2022-09-02T14:48:59.835Z,16.90
2022-09-02T14:51:34.436Z,17.00
2022-09-02T14:54:01.463Z,17.20
2022-09-02T14:56:48.351Z,17.20
2022-09-02T14:59:15.482Z,17.30
2022-09-02T15:01:49.070Z,17.20
2022-09-02T15:04:16.406Z,17.20
2022-09-02T15:06:43.622Z,17.10
2022-09-02T15:09:10.606Z,17.20
2022-09-02T15:11:39.524Z,17.10
2022-09-02T15:14:06.706Z,17.00
2022-09-02T15:16:33.612Z,17.00
2022-09-02T15:19:00.480Z,16.70
2022-09-02T15:21:27.404Z,16.90
2022-09-02T15:23:54.531Z,16.90
2022-09-02T15:26:21.597Z,16.70
2022-09-02T15:28:49.079Z,16.80
2022-09-02T15:31:16.370Z,16.90
2022-09-02T15:33:48.332Z,16.90
2022-09-02T15:36:15.220Z,16.80
2022-09-02T15:38:42.193Z,16.70
2022-09-02T15:41:24.213Z,16.60
2022-09-02T15:43:54.428Z,16.50
2022-09-02T15:46:27.377Z,16.40
2022-09-02T15:48:59.048Z,16.30
2022-09-02T15:51:29.157Z,16.30
2022-09-02T15:54:01.605Z,16.40
2022-09-02T15:56:30.639Z,16.30
2022-09-02T15:58:59.700Z,16.20
2022-09-02T16:01:28.485Z,16.40
2022-09-02T16:03:55.997Z,16.50
2022-09-02T16:06:22.848Z,16.60
2022-09-02T16:08:49.905Z,16.60
2022-09-02T16:11:17.802Z,16.50
2022-09-02T16:13:45.397Z,16.50
2022-09-02T16:16:13.967Z,16.70
2022-09-02T16:18:42.094Z,16.80
2022-09-02T16:21:11.268Z,17.00
2022-09-02T16:23:38.722Z,17.30
2022-09-02T16:26:13.456Z,17.40
2022-09-02T16:28:42.740Z,17.10
2022-09-02T16:31:10.977Z,16.90
2022-09-02T16:33:37.881Z,16.40
2022-09-02T16:36:06.904Z,16.10
2022-09-02T16:38:34.645Z,16.30
2022-09-02T16:41:01.799Z,16.30
2022-09-02T16:43:32.108Z,16.20
2022-09-02T16:46:03.119Z,16.50
2022-09-02T16:48:33.814Z,16.80
2022-09-02T16:51:04.850Z,17.00
2022-09-02T16:53:32.927Z,17.10
2022-09-02T16:55:59.924Z,17.40
2022-09-02T16:58:28.825Z,17.50
2022-09-02T17:00:55.864Z,17.60
2022-09-02T17:03:22.979Z,17.50
2022-09-02T17:05:49.900Z,17.20
2022-09-02T17:08:17.318Z,16.90
2022-09-02T17:10:44.361Z,16.40
2022-09-02T17:13:11.283Z,16.10
2022-09-02T17:15:38.169Z,15.60
2022-09-02T17:18:06.017Z,15.30
2022-09-02T17:20:32.895Z,15.00
2022-09-02T17:23:00.049Z,14.80
2022-09-02T17:25:26.971Z,14.50
2022-09-02T17:27:53.822Z,14.20
2022-09-02T17:30:20.875Z,14.10
2022-09-02T17:32:47.848Z,13.80
2022-09-02T17:35:14.782Z,13.70
2022-09-02T17:37:41.874Z,13.50
2022-09-02T17:40:32.581Z,13.30
2022-09-02T17:42:59.487Z,13.10
2022-09-02T17:45:26.371Z,13.00
2022-09-02T17:47:53.250Z,12.80
2022-09-02T17:50:20.163Z,12.70
2022-09-02T17:52:47.146Z,12.60
2022-09-02T17:55:14.088Z,12.50
2022-09-02T17:58:15.034Z,12.40
2022-09-02T18:00:45.424Z,12.20
2022-09-02T18:03:31.731Z,12.10
2022-09-02T18:06:07.108Z,12.00
2022-09-02T18:08:54.682Z,11.90
2022-09-02T18:11:22.665Z,11.70
2022-09-02T18:14:15.676Z,11.50
2022-09-02T18:16:59.265Z,11.50
2022-09-02T18:19:49.959Z,11.30
2022-09-02T18:22:44.525Z,11.20
2022-09-02T18:26:06.904Z,11.10
2022-09-02T18:28:56.742Z,11.00
2022-09-02T18:31:37.312Z,11.00
2022-09-02T18:34:31.442Z,10.90
2022-09-02T18:37:33.115Z,10.80
2022-09-02T18:40:29.502Z,10.70
2022-09-02T18:43:02.609Z,10.60
2022-09-02T18:45:35.622Z,10.60
2022-09-02T18:48:07.455Z,10.50
2022-09-02T18:50:51.029Z,10.40
2022-09-02T18:53:22.866Z,10.30
2022-09-02T18:55:51.984Z,10.20
2022-09-02T18:58:19.121Z,10.20
2022-09-02T19:00:51.149Z,10.20
2022-09-02T19:03:18.181Z,10.10
2022-09-02T19:05:45.184Z,10.00
2022-09-02T19:08:35.405Z,9.90
2022-09-02T19:11:02.891Z,9.90
2022-09-02T19:13:34.289Z,9.80
2022-09-02T19:16:04.333Z,9.70
2022-09-02T19:18:32.343Z,9.70
2022-09-02T19:20:59.583Z,9.60
2022-09-02T19:23:27.633Z,9.60
2022-09-02T19:25:54.538Z,9.50
2022-09-02T19:28:23.051Z,9.40
2022-09-02T19:30:57.351Z,9.40
2022-09-02T19:33:24.243Z,9.40
2022-09-02T19:35:51.253Z,9.30
2022-09-02T19:38:18.180Z,9.30
2022-09-02T19:40:49.393Z,9.20
2022-09-02T19:43:16.739Z,9.20
2022-09-02T19:45:43.941Z,9.10
2022-09-02T19:48:11.528Z,9.10
2022-09-02T19:50:43.719Z,9.00
2022-09-02T19:53:25.679Z,8.90
2022-09-02T19:55:52.548Z,8.90
2022-09-02T19:58:19.611Z,8.80
2022-09-02T20:00:47.819Z,8.80
2022-09-02T20:03:15.989Z,8.80
2022-09-02T20:05:42.985Z,8.70
2022-09-02T20:08:09.853Z,8.60
2022-09-02T20:10:40.728Z,8.60
2022-09-02T20:13:13.678Z,8.60
2022-09-02T20:15:40.603Z,8.50
2022-09-02T20:18:13.279Z,8.50
2022-09-02T20:20:45.623Z,8.40
2022-09-02T20:23:17.028Z,8.40
2022-09-02T20:26:02.861Z,8.40
2022-09-02T20:28:39.439Z,8.30
2022-09-02T20:31:31.725Z,8.20
2022-09-02T20:34:20.359Z,8.20
2022-09-02T20:37:04.981Z,8.10
2022-09-02T20:40:05.053Z,8.10
2022-09-02T20:43:00.912Z,8.00
2022-09-02T20:45:39.396Z,8.00
2022-09-02T20:48:27.568Z,7.90
2022-09-02T20:51:26.633Z,7.90
2022-09-02T20:54:12.421Z,7.80
2022-09-02T20:56:57.546Z,7.80
2022-09-02T20:59:31.216Z,7.80
2022-09-02T21:02:01.767Z,7.70
2022-09-02T21:04:32.657Z,7.70
2022-09-02T21:07:17.743Z,7.70
2022-09-02T21:09:50.670Z,7.70
2022-09-02T21:12:37.239Z,7.70
2022-09-02T21:15:24.310Z,7.60
2022-09-02T21:17:54.273Z,7.60
2022-09-02T21:20:51.564Z,7.50
2022-09-02T21:23:28.435Z,7.50
2022-09-02T21:25:58.427Z,7.40
2022-09-02T21:28:46.947Z,7.40
2022-09-02T21:31:38.667Z,7.30
2022-09-02T21:34:12.262Z,7.30
2022-09-02T21:36:40.298Z,7.30
2022-09-02T21:39:15.031Z,7.30
2022-09-02T21:41:50.597Z,7.30
2022-09-02T21:44:37.676Z,7.20
2022-09-02T21:47:27.364Z,7.20
2022-09-02T21:50:22.119Z,7.20
2022-09-02T21:52:58.081Z,7.10
2022-09-02T21:55:33.545Z,7.10
2022-09-02T21:58:26.335Z,7.10
2022-09-02T22:01:10.261Z,7.10
2022-09-02T22:03:46.105Z,7.00
2022-09-02T22:06:15.930Z,7.00
2022-09-02T22:08:50.386Z,7.00
2022-09-02T22:11:45.834Z,6.90
2022-09-02T22:14:26.235Z,6.90
2022-09-02T22:16:59.021Z,6.90
2022-09-02T22:19:30.128Z,6.80
2022-09-02T22:22:06.236Z,6.90
2022-09-02T22:24:37.262Z,6.80
2022-09-02T22:27:13.128Z,6.70
2022-09-02T22:29:55.056Z,6.80
2022-09-02T22:32:31.839Z,6.70
2022-09-02T22:35:31.574Z,6.70
2022-09-02T22:38:26.615Z,6.70
2022-09-02T22:40:58.724Z,6.60
2022-09-02T22:43:44.543Z,6.60
2022-09-02T22:46:38.708Z,6.60
2022-09-02T22:49:32.098Z,6.60
2022-09-02T22:52:51.925Z,6.60
2022-09-02T22:55:39.353Z,6.50
2022-09-02T22:58:21.304Z,6.50
2022-09-02T23:01:31.293Z,6.40
2022-09-02T23:04:16.925Z,6.40
2022-09-02T23:06:45.059Z,6.30
2022-09-02T23:09:14.699Z,6.30
2022-09-02T23:12:02.258Z,6.30
2022-09-02T23:14:51.130Z,6.20
2022-09-02T23:17:38.876Z,6.20
2022-09-02T23:20:39.519Z,6.20
2022-09-02T23:23:39.240Z,6.20
2022-09-02T23:26:58.073Z,6.10
2022-09-02T23:29:28.677Z,6.10
2022-09-02T23:32:10.400Z,6.10
2022-09-02T23:34:58.067Z,6.00
2022-09-02T23:37:48.159Z,6.00
2022-09-02T23:40:27.788Z,6.00
2022-09-02T23:42:59.447Z,5.90
2022-09-02T23:45:29.048Z,5.90
2022-09-02T23:48:14.614Z,5.90
2022-09-02T23:50:47.043Z,5.90
2022-09-02T23:53:50.498Z,5.80
2022-09-02T23:56:43.468Z,5.80
2022-09-02T23:59:36.578Z,5.80
